Time;durP1;ratioP1;P1;durP2;ratioP2;P2;SDS_P1;SDS_P2;PMS_P1;PMS_P2;Temp;Humidity;BMP_temperature;BMP_pressure;BME280_temperature;BME280_humidity;BME280_pressure;Samples;Min_cycle;Max_cycle;Signal;HPM_P1;HPM_P2
2021/10/26 00:01:08;;;;;;;1.42;1.20;;;;;;;26.04;23.38;94668.59;4967848;28;20046;-81
2021/10/26 00:03:37;;;;;;;1.20;1.10;;;;;;;26.08;23.31;94663.47;4941136;28;20337;-81
2021/10/26 00:06:03;;;;;;;1.80;1.20;;;;;;;26.05;23.74;94670.19;4956392;28;20035;-81
2021/10/26 00:08:28;;;;;;;1.13;1.10;;;;;;;26.06;23.74;94671.75;4968572;28;20043;-81
2021/10/26 00:10:53;;;;;;;1.23;1.13;;;;;;;26.05;23.70;94659.53;4955050;28;20030;-81
2021/10/26 00:13:22;;;;;;;1.13;1.05;;;;;;;26.06;23.79;94668.31;4954633;28;20042;-81
2021/10/26 00:15:51;;;;;;;1.30;1.20;;;;;;;26.13;23.76;94666.84;4960890;28;20062;-81
2021/10/26 00:18:17;;;;;;;1.40;1.30;;;;;;;26.06;23.71;94674.41;4939197;28;20029;-81
2021/10/26 00:20:44;;;;;;;1.10;1.00;;;;;;;26.06;23.65;94663.75;4976599;28;20031;-81
2021/10/26 00:23:15;;;;;;;1.33;1.23;;;;;;;26.14;23.58;94665.78;4953594;28;20042;-82
2021/10/26 00:25:40;;;;;;;1.20;1.10;;;;;;;26.09;23.51;94665.06;4955375;28;20039;-81
2021/10/26 00:28:06;;;;;;;1.20;1.10;;;;;;;26.11;24.04;94676.22;4954816;28;20042;-81
2021/10/26 00:30:31;;;;;;;1.35;1.25;;;;;;;26.08;24.09;94672.28;4967065;28;20469;-80
2021/10/26 00:32:57;;;;;;;1.70;1.40;;;;;;;26.10;23.75;94662.13;4941047;28;20034;-81
2021/10/26 00:35:27;;;;;;;1.33;1.23;;;;;;;26.09;24.05;94671.19;4961485;28;20058;-80
2021/10/26 00:37:53;;;;;;;1.58;1.33;;;;;;;26.09;23.81;94673.84;4956049;28;20023;-81
2021/10/26 00:40:18;;;;;;;1.42;1.20;;;;;;;26.09;23.68;94678.41;4961178;28;20038;-81
2021/10/26 00:42:44;;;;;;;1.52;1.40;;;;;;;26.07;24.00;94670.69;4954019;28;20086;-81
2021/10/26 00:45:09;;;;;;;1.25;1.15;;;;;;;26.08;24.00;94664.28;4979056;28;20083;-81
2021/10/26 00:47:37;;;;;;;1.50;1.40;;;;;;;26.08;23.97;94663.47;4939345;28;20112;-81
2021/10/26 00:50:04;;;;;;;1.17;1.08;;;;;;;26.06;23.98;94657.66;4963489;28;20066;-81
2021/10/26 00:52:30;;;;;;;1.40;1.30;;;;;;;26.08;24.00;94658.97;4941058;28;20098;-81
2021/10/26 00:54:55;;;;;;;1.42;1.33;;;;;;;26.08;24.06;94653.63;4957898;28;20037;-81
2021/10/26 00:57:25;;;;;;;1.52;1.40;;;;;;;26.07;24.02;94652.03;4926183;28;20034;-81
2021/10/26 00:59:51;;;;;;;1.17;1.08;;;;;;;26.09;24.08;94657.06;4958317;28;20073;-81
2021/10/26 01:02:18;;;;;;;1.45;1.17;;;;;;;26.08;24.28;94653.63;4940774;28;20528;-81
2021/10/26 01:04:44;;;;;;;1.67;1.30;;;;;;;26.06;23.99;94649.66;4937205;28;20131;-81
2021/10/26 01:07:09;;;;;;;1.20;1.10;;;;;;;26.08;24.30;94648.28;4956059;28;20023;-81
2021/10/26 01:09:38;;;;;;;1.27;1.17;;;;;;;26.08;23.97;94648.28;4949763;28;20026;-81
2021/10/26 01:12:05;;;;;;;1.35;1.25;;;;;;;26.08;24.07;94653.63;4970705;28;20037;-81
2021/10/26 01:14:31;;;;;;;1.17;1.08;;;;;;;26.08;24.17;94648.28;4974226;28;20019;-81
2021/10/26 01:17:03;;;;;;;1.58;1.10;;;;;;;26.16;24.24;94648.69;4971921;28;20034;-81
2021/10/26 01:19:47;;;;;;;1.20;1.10;;;;;;;26.11;24.30;94647.69;4942797;28;20019;-81
2021/10/26 01:22:16;;;;;;;2.15;1.10;;;;;;;26.07;24.25;94657.34;4955292;28;20171;-81
2021/10/26 01:24:41;;;;;;;1.30;1.20;;;;;;;26.09;24.46;94659.75;4950224;28;20035;-81
2021/10/26 01:27:07;;;;;;;1.30;1.20;;;;;;;26.06;24.33;94655.75;4970436;28;20058;-80
2021/10/26 01:29:35;;;;;;;1.50;1.40;;;;;;;26.09;24.67;94663.19;4950363;28;20116;-79
2021/10/26 01:32:01;;;;;;;1.30;1.02;;;;;;;26.09;24.57;94665.84;4922460;28;20105;-80
2021/10/26 01:34:29;;;;;;;1.35;1.25;;;;;;;26.05;24.34;94658.75;4970191;28;20023;-80
2021/10/26 01:36:58;;;;;;;1.70;1.17;;;;;;;26.14;24.59;94671.13;4969762;28;20039;-80
2021/10/26 01:39:23;;;;;;;1.73;1.30;;;;;;;26.10;24.58;94670.13;4961145;28;20023;-81
2021/10/26 01:41:51;;;;;;;1.17;1.08;;;;;;;26.11;24.19;94668.25;4937929;28;20035;-80
2021/10/26 01:44:16;;;;;;;1.20;1.10;;;;;;;26.07;24.50;94668.03;4955094;28;20031;-81
2021/10/26 01:46:44;;;;;;;1.55;1.40;;;;;;;26.11;24.71;94671.69;4965124;28;20062;-81
2021/10/26 01:49:17;;;;;;;1.38;1.27;;;;;;;26.16;24.52;94673.50;4958576;28;20035;-81
2021/10/26 01:51:42;;;;;;;1.30;1.20;;;;;;;25.99;24.35;94663.34;4952999;28;20039;-81
2021/10/26 01:54:08;;;;;;;1.30;1.20;;;;;;;26.08;24.66;94677.63;4957430;28;20038;-81
2021/10/26 01:56:34;;;;;;;1.20;1.10;;;;;;;26.13;24.29;94677.53;4938194;28;20039;-81
2021/10/26 01:58:59;;;;;;;1.25;1.15;;;;;;;26.09;24.40;94673.06;4958841;28;20023;-81
2021/10/26 02:01:24;;;;;;;1.33;1.23;;;;;;;26.12;24.62;94681.28;4957332;28;20035;-81
2021/10/26 02:03:53;;;;;;;1.17;1.10;;;;;;;26.20;24.59;94684.34;4936705;28;20030;-81
2021/10/26 02:06:18;;;;;;;1.42;1.13;;;;;;;26.11;24.68;94682.34;4956277;28;20023;-81
2021/10/26 02:08:43;;;;;;;1.10;1.00;;;;;;;26.16;24.37;94686.00;4934613;28;20039;-81
2021/10/26 02:11:11;;;;;;;1.40;1.13;;;;;;;26.16;24.69;94686.00;4926928;28;20032;-80
2021/10/26 02:13:39;;;;;;;1.30;1.20;;;;;;;26.17;24.69;94674.28;4939166;28;20043;-82
2021/10/26 02:16:05;;;;;;;1.67;1.10;;;;;;;26.16;24.35;94680.69;4944502;28;20042;-81
2021/10/26 02:18:32;;;;;;;1.40;1.30;;;;;;;26.18;24.35;94689.19;4955472;28;20063;-81
2021/10/26 02:20:57;;;;;;;1.42;1.10;;;;;;;26.19;24.24;94690.78;4968628;28;20061;-82
2021/10/26 02:23:23;;;;;;;1.20;1.10;;;;;;;26.17;24.68;94684.94;4951614;28;20027;-81
2021/10/26 02:25:48;;;;;;;1.27;1.17;;;;;;;26.18;24.66;94694.50;4937766;28;20042;-81
2021/10/26 02:28:14;;;;;;;1.42;1.20;;;;;;;26.20;24.26;94700.34;4939394;28;20041;-81
2021/10/26 02:30:41;;;;;;;1.20;1.10;;;;;;;26.20;24.58;94705.69;4961303;28;20054;-81
2021/10/26 02:33:09;;;;;;;1.50;1.30;;;;;;;26.19;24.36;94702.22;4954747;28;20039;-81
2021/10/26 02:35:39;;;;;;;1.20;1.10;;;;;;;26.19;24.26;94702.22;4953003;28;20035;-81
2021/10/26 02:38:05;;;;;;;;;;;;;;;26.43;24.07;94704.03;4955114;28;20034;-80
2021/10/26 02:40:33;;;;;;;1.23;1.13;;;;;;;26.35;24.41;94705.47;4959928;28;19914;-81
2021/10/26 02:42:58;;;;;;;1.40;1.30;;;;;;;26.25;24.16;94708.28;4937060;28;20043;-81
2021/10/26 02:45:29;;;;;;;1.40;1.30;;;;;;;26.23;24.76;94708.56;4958228;28;20086;-81
2021/10/26 02:47:56;;;;;;;1.23;1.13;;;;;;;26.22;24.37;94701.66;4952017;28;20114;-81
2021/10/26 02:50:21;;;;;;;1.48;1.33;;;;;;;26.22;24.48;94706.22;4945979;28;20027;-81
2021/10/26 02:52:47;;;;;;;1.30;1.20;;;;;;;26.21;24.71;94704.59;4938920;28;20102;-81
2021/10/26 02:55:17;;;;;;;1.50;1.20;;;;;;;26.21;24.78;94700.06;4957271;28;20033;-81
2021/10/26 02:57:42;;;;;;;1.40;1.30;;;;;;;26.19;24.55;94712.09;4941027;28;20035;-81
2021/10/26 03:00:10;;;;;;;1.50;1.25;;;;;;;26.17;24.59;94700.94;4960021;28;20058;-81
2021/10/26 03:02:36;;;;;;;1.65;1.23;;;;;;;26.17;24.68;94704.38;4924595;28;20034;-81
2021/10/26 03:05:01;;;;;;;1.58;1.30;;;;;;;26.17;24.73;94695.59;4957514;28;20059;-81
2021/10/26 03:07:26;;;;;;;1.40;1.23;;;;;;;26.13;24.73;94692.72;4925670;29;20039;-81
2021/10/26 03:09:55;;;;;;;1.40;1.30;;;;;;;26.14;24.93;94699.63;4974659;28;20031;-81
2021/10/26 03:12:21;;;;;;;1.15;1.05;;;;;;;26.15;24.65;94701.22;4942125;28;20117;-81
2021/10/26 03:14:48;;;;;;;1.38;1.27;;;;;;;26.14;24.91;94695.09;4980366;28;20034;-81
2021/10/26 03:17:14;;;;;;;1.10;1.10;;;;;;;26.16;24.66;94702.00;4958368;28;20035;-81
2021/10/26 03:19:42;;;;;;;1.40;1.30;;;;;;;26.21;24.57;94697.41;4943174;28;20094;-81
2021/10/26 03:22:07;;;;;;;1.50;1.40;;;;;;;26.14;24.93;94700.44;4951650;28;20031;-81
2021/10/26 03:24:33;;;;;;;1.45;1.35;;;;;;;26.15;24.66;94701.22;4957167;28;20046;-80
2021/10/26 03:26:58;;;;;;;1.50;1.40;;;;;;;26.13;24.97;94698.06;4957646;28;20047;-81
2021/10/26 03:29:23;;;;;;;1.30;1.20;;;;;;;26.12;24.72;94697.28;4952151;28;20036;-81
2021/10/26 03:31:55;;;;;;;1.35;1.20;;;;;;;26.15;24.95;94703.88;4940405;29;20035;-81
2021/10/26 03:34:20;;;;;;;1.40;1.30;;;;;;;26.12;25.09;94702.59;4950032;28;20043;-81
2021/10/26 03:36:46;;;;;;;1.40;1.27;;;;;;;26.12;24.91;94707.94;4957639;28;20035;-81
2021/10/26 03:39:11;;;;;;;1.20;1.10;;;;;;;26.13;24.75;94704.16;4953371;28;20026;-81
2021/10/26 03:41:39;;;;;;;1.48;1.38;;;;;;;26.13;24.92;94709.50;4958527;28;20035;-81
2021/10/26 03:44:04;;;;;;;1.20;1.10;;;;;;;26.14;25.19;94710.28;4959293;28;20058;-81
2021/10/26 03:46:30;;;;;;;1.30;1.20;;;;;;;26.14;24.65;94719.09;4958221;28;20039;-81
2021/10/26 03:48:55;;;;;;;1.38;1.13;;;;;;;26.16;25.08;94718.00;4963167;28;20028;-81
2021/10/26 03:51:21;;;;;;;1.35;1.25;;;;;;;26.16;25.26;94718.00;4955897;28;20058;-81
2021/10/26 03:53:46;;;;;;;1.20;1.10;;;;;;;26.14;24.72;94716.44;4942601;28;20035;-81
2021/10/26 03:56:14;;;;;;;1.20;1.10;;;;;;;26.14;25.07;94720.94;4957244;28;20090;-81
2021/10/26 03:58:42;;;;;;;1.60;1.48;;;;;;;26.16;25.30;94724.16;4961063;28;20039;-81
2021/10/26 04:01:09;;;;;;;1.42;1.30;;;;;;;26.17;25.29;94724.94;4945164;28;20038;-81
2021/10/26 04:03:34;;;;;;;1.50;1.40;;;;;;;26.16;24.94;94726.00;4952835;28;20385;-81
2021/10/26 04:06:05;;;;;;;1.38;1.27;;;;;;;26.18;24.97;94723.84;4958387;28;20043;-81
2021/10/26 04:11:03;;;;;;;1.23;1.13;;;;;;;26.18;25.11;94734.50;4960642;28;20037;-81
2021/10/26 04:13:28;;;;;;;1.30;1.20;;;;;;;26.18;25.03;94737.97;4951347;28;20169;-81
2021/10/26 04:15:59;;;;;;;1.77;1.30;;;;;;;26.25;25.18;94738.38;4955034;28;20028;-81
2021/10/26 04:18:28;;;;;;;1.30;1.20;;;;;;;26.20;25.08;94729.66;4960328;28;20023;-81
2021/10/26 04:20:53;;;;;;;1.23;1.13;;;;;;;26.20;25.10;94729.66;4962330;28;20045;-81
2021/10/26 04:23:19;;;;;;;1.40;1.30;;;;;;;26.19;25.08;94734.22;4947763;28;20035;-81
2021/10/26 04:25:44;;;;;;;1.45;1.27;;;;;;;26.21;25.13;94731.25;4924628;29;20102;-81
2021/10/26 04:28:12;;;;;;;1.45;1.35;;;;;;;26.22;24.90;94730.19;4947174;28;20035;-81
2021/10/26 04:30:37;;;;;;;1.42;1.33;;;;;;;26.21;25.22;94733.94;4954689;28;20039;-81
2021/10/26 04:33:03;;;;;;;1.55;1.45;;;;;;;26.21;25.08;94736.59;4937768;29;20039;-81
2021/10/26 04:35:28;;;;;;;1.42;1.33;;;;;;;26.22;25.08;94730.19;4941943;28;20118;-81
2021/10/26 04:37:56;;;;;;;1.50;1.40;;;;;;;26.19;25.29;94733.44;4946882;28;20043;-81
2021/10/26 04:40:22;;;;;;;1.70;1.40;;;;;;;26.23;25.05;94740.53;4938178;28;20118;-80
2021/10/26 04:42:50;;;;;;;1.60;1.50;;;;;;;26.22;25.54;94733.66;4971500;28;20039;-81
2021/10/26 04:45:16;;;;;;;1.98;1.80;;;;;;;26.25;25.33;94737.59;4956913;28;20039;-81
2021/10/26 04:47:45;;;;;;;1.60;1.50;;;;;;;26.18;25.33;94727.31;4950344;28;20042;-81
2021/10/26 04:50:11;;;;;;;1.63;1.52;;;;;;;26.23;25.04;94739.75;4950860;28;20027;-81
2021/10/26 04:52:37;;;;;;;2.08;1.88;;;;;;;26.25;24.93;94742.94;4950536;28;20113;-81
2021/10/26 04:55:03;;;;;;;2.30;2.10;;;;;;;26.20;25.20;94735.81;4953132;28;20173;-80
2021/10/26 04:57:32;;;;;;;2.53;2.10;;;;;;;26.21;25.19;94732.03;4936617;28;20034;-82
2021/10/26 04:59:58;;;;;;;2.97;2.20;;;;;;;26.26;25.56;94739.19;4936944;28;20031;-81
2021/10/26 05:02:23;;;;;;;2.80;2.25;;;;;;;26.24;25.43;94741.38;4952820;28;20207;-81
2021/10/26 05:04:49;;;;;;;2.42;2.10;;;;;;;26.24;25.57;94728.81;4954660;28;20034;-81
2021/10/26 05:07:15;;;;;;;2.40;2.20;;;;;;;26.21;25.68;94731.25;4953390;28;20039;-81
2021/10/26 05:09:41;;;;;;;2.25;2.05;;;;;;;26.24;25.58;94736.03;4954342;28;20034;-81
2021/10/26 05:12:06;;;;;;;2.40;1.92;;;;;;;26.25;25.66;94734.94;4935732;28;20031;-81
2021/10/26 05:14:32;;;;;;;2.10;1.90;;;;;;;26.23;25.38;94739.75;4925384;29;20030;-81
2021/10/26 05:16:58;;;;;;;2.28;2.08;;;;;;;26.23;25.44;94742.44;4920106;28;20050;-81
2021/10/26 05:19:24;;;;;;;2.33;2.13;;;;;;;26.21;25.27;94741.94;4938052;28;20043;-81
2021/10/26 05:21:50;;;;;;;2.35;2.03;;;;;;;26.19;25.63;94739.53;4936689;28;20031;-81
2021/10/26 05:24:16;;;;;;;2.75;2.10;;;;;;;26.22;25.54;94744.31;4950005;28;20047;-82
2021/10/26 05:26:43;;;;;;;3.25;2.10;;;;;;;26.19;25.76;94738.75;4951923;28;20066;-82
2021/10/26 05:29:11;;;;;;;2.60;2.00;;;;;;;26.19;25.59;94739.53;4951807;28;20050;-81
2021/10/26 05:31:38;;;;;;;2.10;1.90;;;;;;;26.19;25.53;94736.09;4954036;28;20051;-82
2021/10/26 05:34:05;;;;;;;2.63;2.20;;;;;;;26.19;25.63;94744.09;4965892;28;20034;-82
2021/10/26 05:36:30;;;;;;;2.67;2.17;;;;;;;26.21;25.95;94749.94;4936920;28;20027;-80
2021/10/26 05:38:57;;;;;;;2.40;2.20;;;;;;;26.20;26.08;94759.00;4938409;28;20019;-80
2021/10/26 05:41:23;;;;;;;2.45;2.20;;;;;;;26.21;25.59;94749.94;4951815;28;20031;-80
2021/10/26 05:43:50;;;;;;;2.63;2.10;;;;;;;26.20;25.95;94757.13;4967891;28;20027;-80
2021/10/26 05:46:19;;;;;;;2.45;1.90;;;;;;;26.22;25.67;94764.84;4973033;28;20066;-80
2021/10/26 05:48:45;;;;;;;2.55;2.17;;;;;;;26.21;25.95;94760.59;4936374;29;20042;-80
2021/10/26 05:51:10;;;;;;;2.28;2.00;;;;;;;26.21;25.97;94764.03;4951135;28;20058;-80
2021/10/26 05:53:36;;;;;;;2.92;2.17;;;;;;;26.22;25.54;94770.19;4952725;28;20034;-80
2021/10/26 05:56:03;;;;;;;2.33;1.95;;;;;;;26.21;26.22;94771.25;4950928;28;20046;-80
2021/10/26 05:58:29;;;;;;;2.45;2.25;;;;;;;26.21;25.78;94777.38;4966588;28;20082;-80
2021/10/26 06:00:57;;;;;;;2.88;2.10;;;;;;;26.27;26.00;94778.91;4949086;28;20031;-80
2021/10/26 06:03:22;;;;;;;3.28;2.30;;;;;;;26.21;25.83;94782.69;4923072;28;20408;-80
2021/10/26 06:05:48;;;;;;;2.42;1.90;;;;;;;26.18;25.98;94780.63;4921108;28;20035;-80
2021/10/26 06:08:13;;;;;;;2.75;2.10;;;;;;;26.21;26.07;94792.56;4949101;28;20035;-80
2021/10/26 06:10:43;;;;;;;2.75;2.20;;;;;;;26.21;25.87;94790.69;4928763;28;20035;-80
2021/10/26 06:13:11;;;;;;;2.17;1.98;;;;;;;26.21;25.84;94785.38;4948386;28;20225;-80
2021/10/26 06:15:40;;;;;;;2.40;2.10;;;;;;;26.25;26.04;94790.91;4965646;28;20037;-80
2021/10/26 06:18:06;;;;;;;2.53;2.10;;;;;;;26.24;26.11;94790.13;4958173;28;20038;-80
2021/10/26 06:20:32;;;;;;;3.58;2.35;;;;;;;26.24;26.19;94792.00;4953438;28;20120;-80
2021/10/26 06:22:57;;;;;;;2.53;2.00;;;;;;;26.24;26.26;94792.00;4951324;28;20043;-80
2021/10/26 06:25:22;;;;;;;3.90;2.35;;;;;;;26.24;26.17;94789.34;4948933;28;20046;-80
2021/10/26 06:27:48;;;;;;;2.47;2.05;;;;;;;26.24;25.97;94794.69;4948836;28;20057;-79
2021/10/26 06:30:13;;;;;;;2.10;1.90;;;;;;;26.25;26.18;94796.25;4935128;28;20042;-80
2021/10/26 06:32:40;;;;;;;2.42;1.80;;;;;;;26.23;25.79;94793.06;4934326;29;20030;-80
2021/10/26 06:35:09;;;;;;;2.42;1.98;;;;;;;26.27;26.17;94800.22;4966632;28;20025;-80
2021/10/26 06:37:36;;;;;;;2.33;2.00;;;;;;;26.28;25.84;94809.00;4956014;28;20042;-80
2021/10/26 06:40:06;;;;;;;2.10;1.88;;;;;;;26.29;25.79;94819.41;4951471;28;20029;-80
2021/10/26 06:42:34;;;;;;;2.20;1.67;;;;;;;26.24;25.88;94814.13;4951794;28;20031;-81
2021/10/26 06:45:00;;;;;;;2.22;1.80;;;;;;;26.28;25.96;94827.69;4952037;28;20035;-80
2021/10/26 06:47:27;;;;;;;2.10;1.60;;;;;;;26.26;26.19;94821.84;4955799;28;20059;-80
2021/10/26 06:49:53;;;;;;;2.00;1.70;;;;;;;26.26;25.96;94822.63;4988227;28;20034;-81
2021/10/26 06:52:18;;;;;;;2.05;1.85;;;;;;;26.30;26.03;94825.50;4980270;28;20141;-81
2021/10/26 06:54:44;;;;;;;2.17;1.90;;;;;;;26.30;25.91;94831.63;4986408;28;20050;-81
2021/10/26 06:57:10;;;;;;;1.95;1.75;;;;;;;26.30;25.87;94836.19;4997467;28;20033;-81
2021/10/26 06:59:35;;;;;;;2.25;1.80;;;;;;;26.26;26.15;94833.28;4977214;28;20042;-81
2021/10/26 07:02:02;;;;;;;2.17;1.98;;;;;;;26.28;25.91;94838.34;4940254;28;20030;-81
2021/10/26 07:04:28;;;;;;;2.45;1.90;;;;;;;26.30;25.90;94841.50;4955180;28;20058;-81
2021/10/26 07:06:53;;;;;;;2.95;1.83;;;;;;;26.28;25.86;94838.34;4997463;28;20111;-80
2021/10/26 07:09:21;;;;;;;2.35;1.92;;;;;;;26.30;25.86;94849.50;4971873;28;20053;-81
2021/10/26 07:11:47;;;;;;;1.90;1.80;;;;;;;26.27;26.12;94847.41;4971211;28;20038;-81
2021/10/26 07:14:12;;;;;;;2.20;2.00;;;;;;;26.28;26.09;94843.69;4973582;28;20096;-81
2021/10/26 07:16:38;;;;;;;2.03;1.83;;;;;;;26.25;26.19;94850.34;4986597;28;20050;-81
2021/10/26 07:19:03;;;;;;;1.90;1.80;;;;;;;26.26;26.26;94849.28;4989348;28;20121;-81
2021/10/26 07:21:31;;;;;;;2.15;1.70;;;;;;;26.26;26.27;94861.81;4935620;28;20039;-81
2021/10/26 07:23:57;;;;;;;1.67;1.58;;;;;;;26.26;25.97;94856.50;4936609;28;20158;-81
2021/10/26 07:26:23;;;;;;;1.80;1.70;;;;;;;26.25;26.35;94854.91;4950464;28;20038;-81
2021/10/26 07:28:48;;;;;;;2.05;1.65;;;;;;;26.22;26.22;94855.47;4938067;28;20031;-81
2021/10/26 07:31:23;;;;;;;1.60;1.50;;;;;;;26.30;26.14;94862.84;4948727;28;20027;-81
2021/10/26 07:33:49;;;;;;;1.70;1.60;;;;;;;26.24;26.01;94864.78;4950340;28;20067;-81
2021/10/26 07:36:15;;;;;;;1.83;1.73;;;;;;;26.23;26.20;94867.72;4947902;28;20023;-81
2021/10/26 07:38:41;;;;;;;1.75;1.63;;;;;;;26.23;26.24;94867.72;4936494;28;20057;-81
2021/10/26 07:41:07;;;;;;;2.08;1.45;;;;;;;26.22;26.40;94866.94;4948055;28;20032;-81
2021/10/26 07:43:36;;;;;;;1.52;1.42;;;;;;;26.27;26.24;94869.53;4941072;29;20041;-81
2021/10/26 07:46:07;;;;;;;1.65;1.50;;;;;;;26.23;26.37;94863.16;4968107;28;20028;-81
2021/10/26 07:48:33;;;;;;;1.70;1.60;;;;;;;26.22;26.06;94874.16;4941145;29;20117;-81
2021/10/26 07:50:59;;;;;;;1.42;1.30;;;;;;;26.23;26.08;94883.72;4953456;28;20071;-81
2021/10/26 07:53:26;;;;;;;1.42;1.33;;;;;;;26.22;26.55;94882.13;4957654;28;20035;-81
2021/10/26 07:55:57;;;;;;;1.63;1.50;;;;;;;26.22;26.33;94887.47;4953523;28;20027;-80
2021/10/26 07:58:23;;;;;;;1.60;1.50;;;;;;;26.21;26.59;94892.00;4957004;28;20039;-81
2021/10/26 08:00:51;;;;;;;1.80;1.70;;;;;;;26.21;26.35;94894.66;4972724;28;20045;-81
2021/10/26 08:03:19;;;;;;;1.58;1.45;;;;;;;26.22;26.57;94890.13;4956645;28;20085;-81
2021/10/26 08:05:45;;;;;;;1.88;1.70;;;;;;;26.20;26.57;94894.94;4936034;28;20031;-81
2021/10/26 08:08:11;;;;;;;1.55;1.38;;;;;;;26.22;26.83;94893.59;4953576;28;20079;-81
2021/10/26 08:10:37;;;;;;;1.83;1.73;;;;;;;26.23;26.96;94894.38;4933856;29;20039;-81
2021/10/26 08:13:02;;;;;;;3.05;1.75;;;;;;;26.21;26.85;94885.88;4976377;28;20037;-80
2021/10/26 08:15:28;;;;;;;1.60;1.50;;;;;;;26.22;26.92;94887.47;4956623;28;20023;-81
2021/10/26 08:17:53;;;;;;;1.80;1.50;;;;;;;26.25;26.98;94889.56;4945226;28;20031;-81
2021/10/26 08:20:21;;;;;;;1.60;1.50;;;;;;;26.24;26.90;94887.97;4965446;28;20042;-81
2021/10/26 08:22:46;;;;;;;1.60;1.50;;;;;;;26.25;26.83;94886.88;4969184;28;20065;-81
2021/10/26 08:25:19;;;;;;;1.48;1.30;;;;;;;26.25;26.74;94893.00;4919447;28;20035;-80
2021/10/26 08:27:46;;;;;;;1.70;1.60;;;;;;;26.25;26.81;94881.56;4967143;28;20027;-80
2021/10/26 08:30:26;;;;;;;1.30;1.20;;;;;;;26.27;26.89;94895.38;4935182;28;20134;-80
2021/10/26 08:32:56;;;;;;;2.30;1.67;;;;;;;26.26;26.68;94893.81;4957340;28;20105;-80
2021/10/26 08:35:25;;;;;;;1.42;1.33;;;;;;;26.28;26.74;94891.66;4950820;28;20023;-80
2021/10/26 08:37:58;;;;;;;1.58;1.48;;;;;;;26.29;27.06;94891.38;4929243;28;20031;-79
2021/10/26 08:40:24;;;;;;;1.55;1.45;;;;;;;26.29;26.86;94894.03;4954566;28;20039;-80
2021/10/26 08:42:50;;;;;;;1.30;1.20;;;;;;;26.31;27.07;94901.75;4955029;28;20031;-80
2021/10/26 08:45:17;;;;;;;1.77;1.50;;;;;;;26.30;26.98;94900.94;4937223;28;20054;-80
2021/10/26 08:47:44;;;;;;;1.98;1.80;;;;;;;26.27;26.94;94896.22;4926571;29;20075;-80
2021/10/26 08:50:11;;;;;;;1.88;1.58;;;;;;;26.31;26.95;94905.22;4934837;28;20046;-80
2021/10/26 08:52:37;;;;;;;1.73;1.58;;;;;;;26.34;27.03;94909.19;4954137;28;20034;-80
2021/10/26 08:55:04;;;;;;;1.80;1.42;;;;;;;26.32;27.09;94908.66;4935522;28;20042;-80
2021/10/26 08:57:30;;;;;;;1.50;1.40;;;;;;;26.33;27.26;94910.25;4964202;28;20085;-80
2021/10/26 08:59:58;;;;;;;1.63;1.52;;;;;;;26.32;27.24;94892.69;4936734;28;20023;-80
2021/10/26 09:02:41;;;;;;;1.98;1.58;;;;;;;26.44;26.74;94902.94;4938721;28;20066;-80
2021/10/26 09:05:14;;;;;;;1.58;1.38;;;;;;;26.35;26.88;94900.13;4938646;28;20039;-80
2021/10/26 09:07:40;;;;;;;1.63;1.50;;;;;;;26.36;27.48;94908.91;4947091;28;20026;-80
2021/10/26 09:10:10;;;;;;;1.50;1.40;;;;;;;26.42;27.27;94907.75;4954558;28;20038;-80
2021/10/26 09:17:55;;;;;;;1.35;1.25;;;;;;;26.34;27.31;94901.97;4950526;28;20042;-80
2021/10/26 09:20:23;;;;;;;1.60;1.50;;;;;;;26.39;27.47;94903.78;4953436;28;20035;-80
2021/10/26 09:22:51;;;;;;;1.70;1.60;;;;;;;26.34;27.40;94899.31;4937847;28;20039;-80
2021/10/26 09:25:16;;;;;;;2.15;1.67;;;;;;;26.37;27.58;94897.94;4950500;28;20031;-79
2021/10/26 09:27:44;;;;;;;2.20;1.80;;;;;;;26.37;27.95;94905.13;4953480;28;20042;-80
2021/10/26 09:30:11;;;;;;;2.20;1.80;;;;;;;26.41;27.55;94898.97;4935154;28;20058;-80
2021/10/26 09:32:39;;;;;;;2.20;1.90;;;;;;;26.36;27.54;94891.03;4954343;28;20035;-80
2021/10/26 09:35:06;;;;;;;1.63;1.52;;;;;;;26.38;27.56;94891.53;4925032;28;20062;-80
2021/10/26 09:37:44;;;;;;;1.70;1.60;;;;;;;26.40;27.40;94889.38;4918680;28;20038;-80
2021/10/26 09:40:10;;;;;;;2.08;1.60;;;;;;;26.38;27.73;94896.06;4941997;28;20095;-79
2021/10/26 09:42:40;;;;;;;1.65;1.55;;;;;;;26.43;26.98;94894.13;4934193;28;20039;-80
2021/10/26 09:45:05;;;;;;;2.13;1.67;;;;;;;26.35;27.53;94886.78;4957603;28;20034;-80
2021/10/26 09:47:37;;;;;;;1.80;1.60;;;;;;;26.34;27.72;94890.50;4934344;28;20089;-79
2021/10/26 09:50:06;;;;;;;1.90;1.70;;;;;;;26.37;27.85;94894.47;4949539;28;20038;-80
2021/10/26 09:52:36;;;;;;;1.60;1.50;;;;;;;26.36;27.70;94899.03;4948764;28;20055;-80
2021/10/26 09:55:20;;;;;;;2.05;1.70;;;;;;;26.42;27.65;94889.88;4935436;29;20114;-80
2021/10/26 09:57:58;;;;;;;1.50;1.40;;;;;;;26.43;27.31;94888.81;4948333;28;20043;-79
2021/10/26 10:00:30;;;;;;;1.30;1.20;;;;;;;26.44;27.29;94892.25;4933805;28;20038;-80
2021/10/26 10:02:59;;;;;;;1.73;1.63;;;;;;;26.37;27.49;94889.94;4950272;28;20038;-80
2021/10/26 10:05:27;;;;;;;1.70;1.40;;;;;;;26.34;27.82;94901.97;4954591;28;20027;-81
2021/10/26 10:07:54;;;;;;;1.73;1.38;;;;;;;26.35;28.25;94897.44;4948995;28;20121;-81
2021/10/26 10:10:20;;;;;;;1.90;1.60;;;;;;;26.31;28.12;94891.06;4955861;28;20054;-80
2021/10/26 10:12:45;;;;;;;2.25;1.98;;;;;;;26.36;28.51;94898.22;4920350;28;20027;-81
2021/10/26 10:15:13;;;;;;;2.00;1.70;;;;;;;26.37;28.24;94895.28;4969046;28;20039;-81
2021/10/26 10:17:40;;;;;;;1.70;1.60;;;;;;;26.35;28.03;94889.44;4938457;28;20062;-81
2021/10/26 10:20:10;;;;;;;1.40;1.30;;;;;;;26.44;28.17;94895.72;4947237;28;20031;-80
2021/10/26 10:22:38;;;;;;;1.80;1.70;;;;;;;26.38;28.62;94891.53;4953139;28;20038;-81
2021/10/26 10:25:10;;;;;;;1.67;1.45;;;;;;;26.43;28.08;94885.34;4933173;28;20039;-80
2021/10/26 10:27:37;;;;;;;1.55;1.45;;;;;;;26.40;28.23;94889.38;4951190;28;20030;-81
2021/10/26 10:30:04;;;;;;;1.63;1.45;;;;;;;26.41;28.19;94887.50;4931074;28;20058;-80
2021/10/26 10:32:30;;;;;;;1.40;1.30;;;;;;;26.41;28.35;94890.19;4938287;28;20035;-81
2021/10/26 10:34:57;;;;;;;1.88;1.40;;;;;;;26.42;28.17;94884.53;4957104;28;20031;-81
2021/10/26 10:37:23;;;;;;;1.40;1.30;;;;;;;26.42;28.60;94881.88;4939100;28;20070;-80
2021/10/26 10:39:50;;;;;;;1.60;1.40;;;;;;;26.42;28.08;94887.22;4935086;28;20027;-80
2021/10/26 10:42:23;;;;;;;1.50;1.40;;;;;;;26.50;28.28;94889.25;4937586;28;20038;-81
2021/10/26 10:44:55;;;;;;;1.58;1.40;;;;;;;26.43;28.28;94883.47;4946254;28;20039;-81
2021/10/26 10:47:40;;;;;;;2.00;1.48;;;;;;;26.55;27.64;94892.94;4936136;29;20034;-81
2021/10/26 10:50:34;;;;;;;1.52;1.38;;;;;;;26.56;27.56;94892.66;4944509;28;20038;-80
2021/10/26 10:53:20;;;;;;;1.73;1.50;;;;;;;26.57;27.52;94888.88;4956444;28;20039;-80
2021/10/26 10:55:50;;;;;;;1.40;1.30;;;;;;;26.47;28.18;94884.47;4947028;28;20042;-80
2021/10/26 10:58:42;;;;;;;1.88;1.45;;;;;;;26.58;27.69;94889.69;4938249;29;20118;-81
2021/10/26 11:01:20;;;;;;;1.30;1.20;;;;;;;26.58;28.02;94887.00;4951643;28;20062;-80
2021/10/26 11:03:46;;;;;;;1.60;1.50;;;;;;;26.48;28.44;94886.09;4950485;28;20027;-81
2021/10/26 11:06:40;;;;;;;1.30;1.20;;;;;;;26.60;27.56;94884.88;4952317;28;20034;-81
2021/10/26 11:09:28;;;;;;;1.65;1.55;;;;;;;26.63;27.97;94889.66;4963047;28;20039;-81
2021/10/26 11:12:14;;;;;;;1.60;1.50;;;;;;;26.62;27.98;94886.19;4953067;28;20062;-81
2021/10/26 11:14:44;;;;;;;1.40;1.30;;;;;;;26.58;28.01;94877.16;4942626;28;20090;-80
2021/10/26 11:17:34;;;;;;;1.75;1.60;;;;;;;26.64;27.66;94881.38;4955821;28;20067;-81
2021/10/26 11:20:03;;;;;;;1.55;1.40;;;;;;;26.58;28.32;94873.66;4953535;28;20031;-80
2021/10/26 11:22:48;;;;;;;1.60;1.50;;;;;;;26.64;27.58;94875.25;4958149;28;20039;-81
2021/10/26 11:25:40;;;;;;;2.00;1.50;;;;;;;26.64;27.44;94876.03;4939558;28;20027;-81
2021/10/26 11:28:20;;;;;;;1.55;1.45;;;;;;;26.53;28.44;94875.34;4947840;28;20039;-81
2021/10/26 11:30:45;;;;;;;2.00;1.50;;;;;;;26.53;28.16;94869.22;4955334;28;20114;-81
2021/10/26 11:33:14;;;;;;;1.60;1.50;;;;;;;26.59;28.42;94868.09;4958017;28;20356;-80
2021/10/26 11:35:51;;;;;;;1.50;1.40;;;;;;;26.60;28.26;94876.88;4973344;28;20038;-81
2021/10/26 11:38:27;;;;;;;1.25;1.15;;;;;;;26.59;27.90;94864.59;4953230;28;20033;-81
2021/10/26 11:41:08;;;;;;;1.38;1.27;;;;;;;26.63;27.93;94873.66;4956463;28;20102;-81
2021/10/26 11:43:50;;;;;;;1.60;1.42;;;;;;;26.64;27.97;94880.59;4946162;28;20034;-80
2021/10/26 11:46:28;;;;;;;1.58;1.48;;;;;;;26.63;27.84;94871.75;4951661;28;20063;-81